Time;durP1;ratioP1;P1;durP2;ratioP2;P2;SDS_P1;SDS_P2;PMS_P1;PMS_P2;Temp;Humidity;BMP_temperature;BMP_pressure;BME280_temperature;BME280_humidity;BME280_pressure;Samples;Min_cycle;Max_cycle;Signal;HPM_P1;HPM_P2
2022/11/01 00:00:51;;;;;;;;;;;15.30;99.90;;;;;;8435739;28;19957;-77
2022/11/01 00:04:54;;;;;;;;;;;15.30;99.90;;;;;;8416784;28;20012;-77
2022/11/01 00:08:56;;;;;;;;;;;15.30;99.90;;;;;;8433033;28;19932;-77
2022/11/01 00:12:57;;;;;;;;;;;15.30;99.90;;;;;;8426333;28;19924;-77
2022/11/01 00:16:59;;;;;;;;;;;15.30;99.90;;;;;;8426400;28;20341;-77
2022/11/01 00:21:01;;;;;;;;;;;15.30;99.90;;;;;;8427472;28;19928;-77
2022/11/01 00:25:03;;;;;;;;;;;15.30;99.90;;;;;;8431248;28;19938;-77
2022/11/01 00:29:04;;;;;;;;;;;15.40;99.90;;;;;;8434733;28;19946;-77
2022/11/01 00:33:06;;;;;;;;;;;15.40;99.90;;;;;;8411571;28;19932;-77
2022/11/01 00:37:08;;;;;;;;;;;15.30;99.90;;;;;;8434966;28;19924;-77
2022/11/01 00:41:10;;;;;;;;;;;15.40;99.90;;;;;;8435369;28;19924;-77
2022/11/01 00:45:11;;;;;;;;;;;15.40;99.90;;;;;;8439596;28;19930;-77
2022/11/01 00:49:13;;;;;;;;;;;15.30;99.90;;;;;;8431851;28;20388;-77
2022/11/01 00:53:15;;;;;;;;;;;15.30;99.90;;;;;;8436025;28;19924;-77
2022/11/01 00:57:17;;;;;;;;;;;15.30;99.90;;;;;;8427213;28;20318;-77
2022/11/01 01:01:18;;;;;;;;;;;15.30;99.90;;;;;;8434189;28;19936;-77
2022/11/01 01:05:20;;;;;;;;;;;15.40;99.90;;;;;;8415403;28;20010;-77
2022/11/01 01:09:22;;;;;;;;;;;15.40;99.90;;;;;;8433503;28;20031;-76
2022/11/01 01:13:24;;;;;;;;;;;15.40;99.90;;;;;;8435361;28;19930;-77
2022/11/01 01:17:26;;;;;;;;;;;15.50;99.90;;;;;;8432345;28;19924;-76
2022/11/01 01:21:30;;;;;;;;;;;15.50;99.90;;;;;;8443639;28;19931;-76
2022/11/01 01:25:32;;;;;;;;;;;15.50;99.90;;;;;;8440235;28;19937;-77
2022/11/01 01:29:33;;;;;;;;;;;15.50;99.90;;;;;;8436716;28;20340;-77
2022/11/01 01:33:35;;;;;;;;;;;15.50;99.90;;;;;;8430531;28;19966;-77
2022/11/01 01:37:37;;;;;;;;;;;15.50;99.90;;;;;;8442270;28;20379;-77
2022/11/01 01:41:56;;;;;;;;;;;15.60;99.90;;;;;;8437258;28;19928;-77
2022/11/01 01:45:58;;;;;;;;;;;15.60;99.90;;;;;;8433871;28;19932;-77
2022/11/01 01:50:05;;;;;;;;;;;15.50;99.90;;;;;;8436067;28;19928;-76
2022/11/01 01:54:07;;;;;;;;;;;15.60;99.90;;;;;;8433590;28;19932;-77
2022/11/01 01:58:10;;;;;;;;;;;15.60;99.90;;;;;;8431477;28;19938;-76
2022/11/01 02:02:12;;;;;;;;;;;15.60;99.90;;;;;;8436096;28;20019;-77
2022/11/01 02:06:15;;;;;;;;;;;15.60;99.90;;;;;;8431139;28;20361;-77
2022/11/01 02:10:17;;;;;;;;;;;15.60;99.90;;;;;;8411343;28;20401;-77
2022/11/01 02:14:21;;;;;;;;;;;15.70;99.90;;;;;;8440387;28;19924;-77
2022/11/01 02:18:42;;;;;;;;;;;15.80;99.90;;;;;;8439798;28;19971;-76
2022/11/01 02:22:56;;;;;;;;;;;15.80;99.90;;;;;;8440292;28;20320;-77
2022/11/01 02:27:04;;;;;;;;;;;16.00;99.90;;;;;;8432113;28;19924;-77
2022/11/01 02:31:24;;;;;;;;;;;16.10;99.90;;;;;;8416983;28;19930;-77
2022/11/01 02:35:38;;;;;;;;;;;16.20;99.90;;;;;;8434443;28;19924;-78
2022/11/01 02:39:44;;;;;;;;;;;16.30;99.90;;;;;;8438774;28;20003;-77
2022/11/01 02:43:49;;;;;;;;;;;16.40;99.90;;;;;;8436529;28;19924;-77
2022/11/01 03:02:43;;;;;;;;;;;16.70;99.90;;;;;;8433427;28;19936;-77
2022/11/01 03:06:48;;;;;;;;;;;16.60;99.90;;;;;;8428378;27;19924;-77
2022/11/01 03:10:55;;;;;;;;;;;16.60;99.90;;;;;;8421613;28;19938;-77
2022/11/01 03:15:02;;;;;;;;;;;16.60;99.90;;;;;;8435620;28;19950;-77
2022/11/01 03:19:06;;;;;;;;;;;16.60;99.90;;;;;;8423077;28;20383;-77
2022/11/01 03:23:08;;;;;;;;;;;16.60;99.90;;;;;;8431064;28;19932;-77
2022/11/01 03:27:31;;;;;;;;;;;16.60;99.90;;;;;;8438761;27;20383;-77
2022/11/01 03:31:35;;;;;;;;;;;16.60;99.90;;;;;;8423770;28;19955;-76
2022/11/01 03:35:37;;;;;;;;;;;16.70;99.90;;;;;;8409345;28;19972;-77
2022/11/01 03:39:45;;;;;;;;;;;16.70;99.90;;;;;;8407013;28;19924;-77
2022/11/01 03:43:47;;;;;;;;;;;16.80;99.90;;;;;;8432085;28;19938;-77
2022/11/01 03:47:49;;;;;;;;;;;16.80;99.90;;;;;;8412755;28;19923;-77
2022/11/01 03:51:50;;;;;;;;;;;16.70;99.90;;;;;;8425176;28;19979;-77
2022/11/01 03:55:52;;;;;;;;;;;16.70;99.90;;;;;;8428530;28;19938;-78
2022/11/01 03:59:54;;;;;;;;;;;16.60;99.90;;;;;;8422054;28;20383;-77
2022/11/01 04:03:55;;;;;;;;;;;16.40;99.90;;;;;;8433605;28;19968;-77
2022/11/01 04:07:57;;;;;;;;;;;16.20;99.90;;;;;;8411434;28;19932;-78
2022/11/01 04:11:59;;;;;;;;;;;16.20;99.90;;;;;;8424933;28;19924;-77
2022/11/01 04:20:32;;;;;;;;;;;16.00;99.90;;;;;;8430353;28;20035;-77
2022/11/01 04:24:34;;;;;;;;;;;15.90;99.90;;;;;;8419295;28;19942;-77
2022/11/01 04:28:35;;;;;;;;;;;15.80;99.90;;;;;;8426100;28;19982;-77
2022/11/01 04:32:41;;;;;;;;;;;15.80;99.90;;;;;;8412349;28;19930;-77
2022/11/01 04:36:42;;;;;;;;;;;15.70;99.90;;;;;;8409463;28;19936;-76
2022/11/01 04:40:44;;;;;;;;;;;15.70;99.90;;;;;;8421841;28;19940;-77
2022/11/01 04:44:46;;;;;;;;;;;15.60;99.90;;;;;;8423599;28;19924;-77
2022/11/01 04:48:48;;;;;;;;;;;15.40;99.90;;;;;;8413296;28;19928;-77
2022/11/01 04:58:22;;;;;;;;;;;15.40;99.90;;;;;;8426179;28;20471;-77
2022/11/01 05:02:24;;;;;;;;;;;15.30;99.90;;;;;;8431710;28;19938;-78
2022/11/01 05:06:25;;;;;;;;;;;15.30;99.90;;;;;;8428665;28;20014;-77
2022/11/01 05:10:27;;;;;;;;;;;15.20;99.90;;;;;;8424682;28;19938;-77
2022/11/01 05:14:28;;;;;;;;;;;15.10;99.90;;;;;;8406737;28;22374;-77
2022/11/01 05:18:30;;;;;;;;;;;15.10;99.90;;;;;;8434620;28;19928;-77
2022/11/01 05:22:32;;;;;;;;;;;15.00;99.90;;;;;;8440514;28;19934;-76
2022/11/01 05:26:33;;;;;;;;;;;14.80;99.90;;;;;;8434463;28;19931;-77
2022/11/01 05:30:35;;;;;;;;;;;14.70;99.90;;;;;;8434537;28;20402;-76
2022/11/01 05:34:37;;;;;;;;;;;14.70;99.90;;;;;;8398415;28;20023;-76
2022/11/01 05:38:39;;;;;;;;;;;14.60;99.90;;;;;;8413236;28;19931;-78
2022/11/01 05:42:40;;;;;;;;;;;14.60;99.90;;;;;;8435273;28;20304;-76
2022/11/01 05:46:42;;;;;;;;;;;14.50;99.90;;;;;;8434489;28;20022;-76
2022/11/01 05:50:45;;;;;;;;;;;14.50;99.90;;;;;;8428078;28;20405;-76
2022/11/01 05:54:47;;;;;;;;;;;14.50;99.90;;;;;;8430031;28;20307;-77
2022/11/01 05:58:48;;;;;;;;;;;14.50;99.90;;;;;;8420149;28;19974;-76
2022/11/01 06:02:50;;;;;;;;;;;14.40;99.90;;;;;;8424205;28;19938;-77
2022/11/01 06:06:52;;;;;;;;;;;14.40;99.90;;;;;;8427122;28;19935;-76
2022/11/01 06:10:59;;;;;;;;;;;14.30;99.90;;;;;;8411643;28;19938;-77
2022/11/01 06:15:01;;;;;;;;;;;14.30;99.90;;;;;;8432670;28;19967;-77
2022/11/01 06:19:03;;;;;;;;;;;14.30;99.90;;;;;;8426892;28;20393;-76
2022/11/01 06:23:08;;;;;;;;;;;14.30;99.90;;;;;;8419537;28;19928;-77
2022/11/01 06:27:10;;;;;;;;;;;14.20;99.90;;;;;;8395433;28;19924;-72
2022/11/01 06:31:13;;;;;;;;;;;14.10;99.90;;;;;;8395958;28;19932;-72
2022/11/01 06:35:14;;;;;;;;;;;14.00;99.90;;;;;;8426064;27;20342;-72
2022/11/01 06:39:17;;;;;;;;;;;14.00;99.90;;;;;;8409153;28;19935;-72
2022/11/01 06:43:18;;;;;;;;;;;13.90;99.90;;;;;;8412608;28;20028;-72
2022/11/01 06:47:20;;;;;;;;;;;13.90;99.90;;;;;;8393166;28;21539;-72
2022/11/01 06:51:22;;;;;;;;;;;13.80;99.90;;;;;;8418833;28;20027;-72
2022/11/01 06:55:27;;;;;;;;;;;13.80;99.90;;;;;;8404964;28;19939;-72
2022/11/01 06:59:28;;;;;;;;;;;13.70;99.90;;;;;;8403364;28;19924;-72
2022/11/01 07:03:30;;;;;;;;;;;13.70;99.90;;;;;;8408143;28;19974;-72
2022/11/01 07:07:32;;;;;;;;;;;13.70;99.90;;;;;;8405070;28;20232;-72
2022/11/01 07:11:33;;;;;;;;;;;13.70;99.90;;;;;;8408929;28;20035;-72
2022/11/01 07:15:35;;;;;;;;;;;13.70;99.90;;;;;;8400852;28;19928;-72
2022/11/01 07:19:36;;;;;;;;;;;13.70;99.90;;;;;;8406679;28;19964;-72
2022/11/01 07:23:38;;;;;;;;;;;13.70;99.90;;;;;;8411471;28;19930;-72
2022/11/01 07:27:40;;;;;;;;;;;13.70;99.90;;;;;;8407406;28;19931;-72
2022/11/01 07:31:41;;;;;;;;;;;13.70;99.90;;;;;;8404415;28;20390;-72
2022/11/01 07:35:43;;;;;;;;;;;13.70;99.90;;;;;;8410569;28;20366;-72
2022/11/01 07:39:45;;;;;;;;;;;13.70;99.90;;;;;;8406460;28;20384;-72
2022/11/01 07:43:46;;;;;;;;;;;13.70;99.90;;;;;;8412159;28;20263;-72
2022/11/01 07:47:48;;;;;;;;;;;13.70;99.90;;;;;;8407220;28;20023;-72
2022/11/01 07:51:49;;;;;;;;;;;13.70;99.90;;;;;;8405442;28;19930;-72
2022/11/01 07:55:51;;;;;;;;;;;13.70;99.90;;;;;;8392354;28;19925;-72
2022/11/01 07:59:53;;;;;;;;;;;13.80;99.90;;;;;;8415638;28;19930;-73
2022/11/01 08:03:55;;;;;;;;;;;13.90;99.90;;;;;;8414059;28;19946;-73
2022/11/01 08:07:56;;;;;;;;;;;13.90;99.90;;;;;;8413651;28;19932;-73
2022/11/01 08:11:58;;;;;;;;;;;14.00;99.90;;;;;;8436945;28;19924;-71
2022/11/01 08:16:01;;;;;;;;;;;14.00;99.90;;;;;;8431367;28;19934;-72
2022/11/01 08:20:03;;;;;;;;;;;14.00;99.90;;;;;;8434478;28;19924;-72
2022/11/01 08:24:05;;;;;;;;;;;14.00;99.90;;;;;;8435394;28;19930;-72
2022/11/01 08:28:07;;;;;;;;;;;14.00;99.90;;;;;;8419270;28;20367;-72
2022/11/01 08:32:09;;;;;;;;;;;14.00;99.90;;;;;;8440616;28;19924;-72
2022/11/01 08:36:11;;;;;;;;;;;14.10;99.90;;;;;;8433308;28;19946;-72
2022/11/01 08:40:12;;;;;;;;;;;14.10;99.90;;;;;;8426977;28;20167;-72
2022/11/01 08:44:14;;;;;;;;;;;14.10;99.90;;;;;;8428868;28;19924;-72
2022/11/01 08:48:16;;;;;;;;;;;14.00;99.90;;;;;;8430105;28;20275;-72
2022/11/01 08:52:18;;;;;;;;;;;14.10;99.90;;;;;;8435082;28;20405;-72
2022/11/01 08:56:20;;;;;;;;;;;14.10;99.90;;;;;;8412242;28;19932;-72
2022/11/01 09:00:22;;;;;;;;;;;14.10;99.90;;;;;;8409802;28;20029;-72
2022/11/01 09:04:24;;;;;;;;;;;14.00;99.90;;;;;;8424897;28;19936;-72
2022/11/01 09:08:25;;;;;;;;;;;13.90;99.90;;;;;;8409466;28;20333;-72
2022/11/01 09:12:27;;;;;;;;;;;13.90;99.90;;;;;;8430279;28;20027;-73
2022/11/01 09:16:29;;;;;;;;;;;13.90;99.90;;;;;;8431593;28;19935;-72
2022/11/01 09:20:31;;;;;;;;;;;14.00;99.90;;;;;;8433789;28;19927;-72
2022/11/01 09:24:34;;;;;;;;;;;14.00;99.90;;;;;;8426395;28;20363;-72
2022/11/01 09:28:36;;;;;;;;;;;14.20;99.90;;;;;;8428742;28;19931;-72
2022/11/01 09:32:37;;;;;;;;;;;14.40;99.90;;;;;;8404634;28;20255;-73
2022/11/01 09:36:39;;;;;;;;;;;14.60;99.90;;;;;;8406257;28;19975;-72
2022/11/01 09:40:45;;;;;;;;;;;14.70;99.90;;;;;;8438966;28;19924;-72
2022/11/01 09:44:49;;;;;;;;;;;14.70;99.90;;;;;;8416461;28;20453;-72
2022/11/01 09:48:51;;;;;;;;;;;14.80;99.90;;;;;;8429505;28;19932;-72
2022/11/01 09:52:54;;;;;;;;;;;15.00;99.90;;;;;;8423885;28;19930;-72
2022/11/01 09:56:55;;;;;;;;;;;15.20;99.90;;;;;;8418959;28;19924;-72
2022/11/01 10:01:03;;;;;;;;;;;15.50;99.90;;;;;;8429513;28;20405;-72
2022/11/01 10:05:11;;;;;;;;;;;15.80;99.90;;;;;;8417304;28;19924;-72
2022/11/01 10:09:16;;;;;;;;;;;16.10;99.90;;;;;;8425304;28;19932;-72
2022/11/01 10:13:20;;;;;;;;;;;16.30;99.90;;;;;;8416872;28;19958;-72
2022/11/01 10:17:42;;;;;;;;;;;16.40;99.90;;;;;;8424555;28;20015;-72
2022/11/01 10:21:48;;;;;;;;;;;16.60;99.90;;;;;;8427641;28;19933;-72
2022/11/01 10:25:53;;;;;;;;;;;16.80;99.90;;;;;;8438188;27;19963;-72
2022/11/01 10:29:55;;;;;;;;;;;17.10;99.90;;;;;;8412301;28;19943;-72
2022/11/01 10:34:09;;;;;;;;;;;17.40;99.90;;;;;;8439441;27;19975;-72
2022/11/01 10:38:16;;;;;;;;;;;17.50;99.90;;;;;;8423044;28;19931;-72
2022/11/01 10:42:38;;;;;;;;;;;17.70;99.90;;;;;;8430746;28;19924;-72
2022/11/01 10:46:42;;;;;;;;;;;18.10;99.90;;;;;;8409943;28;19971;-72
2022/11/01 10:50:44;;;;;;;;;;;18.30;99.90;;;;;;8428158;28;19931;-72
2022/11/01 10:54:48;;;;;;;;;;;18.40;99.90;;;;;;8402858;28;19956;-72
2022/11/01 10:58:57;;;;;;;;;;;18.50;99.90;;;;;;8386555;28;19981;-72
2022/11/01 11:13:01;;;;;;;;;;;18.80;99.90;;;;;;8385849;28;20076;-72
2022/11/01 11:17:09;;;;;;;;;;;18.90;99.90;;;;;;8390830;28;19932;-72
2022/11/01 11:21:12;;;;;;;;;;;19.00;99.90;;;;;;8389063;28;19929;-72
2022/11/01 11:25:15;;;;;;;;;;;19.20;99.90;;;;;;8371536;28;20007;-72
2022/11/01 11:29:23;;;;;;;;;;;19.40;99.90;;;;;;8391673;28;20026;-72
2022/11/01 11:33:26;;;;;;;;;;;19.40;99.90;;;;;;8392050;28;19939;-72
2022/11/01 11:37:29;;;;;;;;;;;19.70;99.90;;;;;;8405217;28;19928;-72
2022/11/01 11:41:32;;;;;;;;;;;19.70;99.90;;;;;;8377406;28;19932;-72
2022/11/01 11:45:33;;;;;;;;;;;19.40;99.90;;;;;;8385113;28;20351;-72
2022/11/01 11:49:36;;;;;;;;;;;19.30;99.90;;;;;;8384878;28;19929;-72
2022/11/01 11:53:38;;;;;;;;;;;18.90;99.90;;;;;;8387596;28;19939;-72
2022/11/01 11:57:48;;;;;;;;;;;18.50;99.90;;;;;;8393174;28;19946;-72
2022/11/01 12:01:54;;;;;;;;;;;18.50;99.90;;;;;;8390498;28;20016;-72
2022/11/01 12:05:58;;;;;;;;;;;18.80;99.90;;;;;;8385506;28;19928;-72
2022/11/01 12:25:12;;;;;;;;;;;18.70;99.90;;;;;;8388877;28;20024;-72
2022/11/01 12:29:26;;;;;;;;;;;18.90;99.90;;;;;;8389233;28;20020;-72
2022/11/01 12:33:33;;;;;;;;;;;19.00;99.90;;;;;;8382245;28;19972;-72
2022/11/01 12:37:45;;;;;;;;;;;19.00;99.90;;;;;;8388872;28;19930;-72
2022/11/01 12:41:51;;;;;;;;;;;18.80;99.90;;;;;;8401778;28;19924;-72
2022/11/01 12:46:08;;;;;;;;;;;18.70;99.90;;;;;;8405907;28;21492;-72
2022/11/01 12:50:27;;;;;;;;;;;18.60;99.90;;;;;;8395141;28;20391;-72
2022/11/01 12:54:38;;;;;;;;;;;18.60;99.90;;;;;;8386853;28;20397;-72
2022/11/01 12:58:40;;;;;;;;;;;18.40;99.90;;;;;;8389968;28;19971;-72
2022/11/01 13:02:41;;;;;;;;;;;18.30;99.90;;;;;;8390315;28;20268;-72
2022/11/01 13:07:08;;;;;;;;;;;18.20;99.90;;;;;;8404753;28;20019;-72
2022/11/01 13:11:19;;;;;;;;;;;18.20;99.90;;;;;;8374773;28;19931;-72
2022/11/01 13:15:25;;;;;;;;;;;18.20;99.90;;;;;;8391952;28;20387;-72
2022/11/01 13:19:36;;;;;;;;;;;18.10;99.90;;;;;;8389738;28;19928;-72
2022/11/01 13:23:49;;;;;;;;;;;18.20;99.90;;;;;;8372528;28;19939;-72
2022/11/01 13:28:10;;;;;;;;;;;18.20;99.90;;;;;;8404827;28;20333;-72
2022/11/01 13:37:24;;;;;;;;;;;18.00;99.90;;;;;;8388662;28;20020;-72
2022/11/01 13:41:44;;;;;;;;;;;18.00;99.90;;;;;;8390087;28;20390;-72
2022/11/01 13:46:06;;;;;;;;;;;18.00;99.90;;;;;;8392029;28;20015;-72
2022/11/01 13:50:14;;;;;;;;;;;17.90;99.90;;;;;;8389817;28;19967;-72
2022/11/01 13:54:36;;;;;;;;;;;17.90;99.90;;;;;;8389583;28;20097;-72
2022/11/01 13:58:37;;;;;;;;;;;18.00;99.90;;;;;;8378985;28;19925;-72
2022/11/01 14:02:52;;;;;;;;;;;17.90;99.90;;;;;;8393045;28;19932;-72
2022/11/01 14:07:11;;;;;;;;;;;17.90;99.90;;;;;;8374022;28;19923;-72
2022/11/01 14:11:33;;;;;;;;;;;17.90;99.90;;;;;;8411080;28;19924;-72
2022/11/01 14:15:55;;;;;;;;;;;18.00;99.90;;;;;;8389744;28;19946;-73
2022/11/01 14:20:16;;;;;;;;;;;18.60;99.90;;;;;;8385488;28;20016;-72
2022/11/01 14:24:20;;;;;;;;;;;19.50;99.90;;;;;;8371168;28;19924;-72
2022/11/01 14:28:22;;;;;;;;;;;20.20;99.90;;;;;;8387111;28;19939;-72
2022/11/01 14:32:25;;;;;;;;;;;20.50;99.90;;;;;;8407733;28;19928;-70
2022/11/01 14:36:29;;;;;;;;;;;20.60;99.90;;;;;;8391520;28;20311;-70
2022/11/01 14:40:38;;;;;;;;;;;20.70;99.90;;;;;;8401117;28;20008;-70
2022/11/01 14:44:41;;;;;;;;;;;20.30;99.90;;;;;;8388836;28;20587;-70
2022/11/01 14:49:04;;;;;;;;;;;19.60;99.90;;;;;;8387497;28;20084;-70
2022/11/01 14:53:10;;;;;;;;;;;18.90;99.90;;;;;;8393299;28;20003;-70
2022/11/01 14:57:31;;;;;;;;;;;18.70;99.90;;;;;;8387900;28;19924;-70
2022/11/01 15:01:32;;;;;;;;;;;18.70;99.90;;;;;;8392186;28;19935;-70
2022/11/01 15:05:43;;;;;;;;;;;18.50;99.90;;;;;;8386554;28;19924;-70
2022/11/01 15:09:55;;;;;;;;;;;18.30;99.90;;;;;;8391970;28;20014;-70
2022/11/01 15:13:59;;;;;;;;;;;18.20;99.90;;;;;;8388447;28;19924;-70
2022/11/01 15:18:00;;;;;;;;;;;18.00;99.90;;;;;;8405325;28;20017;-70
2022/11/01 15:22:04;;;;;;;;;;;17.80;99.90;;;;;;8384558;28;19932;-70
2022/11/01 15:26:08;;;;;;;;;;;17.50;99.90;;;;;;8381709;28;20567;-70
2022/11/01 15:30:18;;;;;;;;;;;17.30;99.90;;;;;;8387165;28;19928;-70
2022/11/01 15:44:34;;;;;;;;;;;17.10;99.90;;;;;;8380228;28;20383;-70
2022/11/01 15:48:36;;;;;;;;;;;17.00;99.90;;;;;;8370141;28;19924;-70
2022/11/01 15:52:38;;;;;;;;;;;16.90;99.90;;;;;;8384994;28;19939;-70
2022/11/01 15:56:45;;;;;;;;;;;16.70;99.90;;;;;;8386312;28;20398;-70
2022/11/01 16:00:56;;;;;;;;;;;16.60;99.90;;;;;;8385170;28;20012;-70
2022/11/01 16:04:57;;;;;;;;;;;16.60;99.90;;;;;;8385990;28;19924;-70
2022/11/01 16:09:01;;;;;;;;;;;16.50;99.90;;;;;;8374356;28;20384;-70
2022/11/01 16:13:03;;;;;;;;;;;16.50;99.90;;;;;;8388533;28;19986;-70
2022/11/01 16:17:25;;;;;;;;;;;16.50;99.90;;;;;;8376953;28;19932;-70
2022/11/01 16:21:28;;;;;;;;;;;16.40;99.90;;;;;;8384614;28;20011;-70
2022/11/01 16:25:31;;;;;;;;;;;16.30;99.90;;;;;;8389540;28;19932;-70
2022/11/01 16:29:59;;;;;;;;;;;16.20;99.90;;;;;;8376208;28;20031;-70
2022/11/01 16:34:01;;;;;;;;;;;16.20;99.90;;;;;;8382498;28;19931;-70
2022/11/01 16:38:19;;;;;;;;;;;16.30;99.90;;;;;;8395953;28;20022;-70
2022/11/01 16:42:21;;;;;;;;;;;16.30;99.90;;;;;;8389445;28;19933;-70
2022/11/01 16:46:24;;;;;;;;;;;16.20;99.90;;;;;;8396999;28;20645;-70
2022/11/01 16:50:26;;;;;;;;;;;16.20;99.90;;;;;;8393555;28;19932;-70
2022/11/01 16:54:27;;;;;;;;;;;16.20;99.90;;;;;;8378295;28;19938;-70
2022/11/01 16:58:29;;;;;;;;;;;16.20;99.90;;;;;;8393429;28;19932;-70
2022/11/01 17:02:31;;;;;;;;;;;16.20;99.90;;;;;;8391640;28;19928;-70
2022/11/01 17:06:33;;;;;;;;;;;16.20;99.90;;;;;;8390342;28;20082;-70
2022/11/01 17:10:39;;;;;;;;;;;16.20;99.90;;;;;;8392288;28;20418;-70
2022/11/01 17:14:41;;;;;;;;;;;16.20;99.90;;;;;;8387684;28;19924;-70
2022/11/01 17:18:44;;;;;;;;;;;16.10;99.90;;;;;;8381888;28;20375;-70
2022/11/01 17:22:49;;;;;;;;;;;16.10;99.90;;;;;;8371844;28;19971;-70
2022/11/01 17:26:51;;;;;;;;;;;16.10;99.90;;;;;;8386922;28;19932;-70
2022/11/01 17:46:12;;;;;;;;;;;16.10;99.90;;;;;;8386267;28;20280;-72
2022/11/01 17:50:14;;;;;;;;;;;16.00;99.90;;;;;;8402455;28;19971;-72
2022/11/01 17:59:20;;;;;;;;;;;15.90;99.90;;;;;;8382198;28;20471;-72
2022/11/01 18:03:21;;;;;;;;;;;15.90;99.90;;;;;;8388162;28;20295;-72
2022/11/01 18:07:25;;;;;;;;;;;15.80;99.90;;;;;;8382881;28;19946;-72
2022/11/01 18:11:33;;;;;;;;;;;15.90;99.90;;;;;;8384374;28;20041;-72
2022/11/01 18:15:46;;;;;;;;;;;15.80;99.90;;;;;;8382226;28;19932;-72
2022/11/01 18:25:09;;;;;;;;;;;15.70;99.90;;;;;;8387791;28;19922;-72
2022/11/01 18:29:20;;;;;;;;;;;15.60;99.90;;;;;;8375271;28;20019;-72
2022/11/01 18:33:31;;;;;;;;;;;15.50;99.90;;;;;;8376724;28;20734;-72
2022/11/01 18:37:40;;;;;;;;;;;15.50;99.90;;;;;;8388992;28;19928;-72
2022/11/01 18:41:46;;;;;;;;;;;15.60;99.90;;;;;;8383539;28;19934;-72
2022/11/01 18:45:47;;;;;;;;;;;15.60;99.90;;;;;;8399133;27;19936;-72
2022/11/01 18:50:14;;;;;;;;;;;15.60;99.90;;;;;;8368805;28;19929;-72
2022/11/01 18:54:24;;;;;;;;;;;15.60;99.90;;;;;;8375985;28;19928;-72
2022/11/01 18:58:28;;;;;;;;;;;15.60;99.90;;;;;;8380743;28;19960;-72
2022/11/01 19:02:31;;;;;;;;;;;15.50;99.90;;;;;;8408183;28;20343;-72
2022/11/01 19:06:33;;;;;;;;;;;15.60;99.90;;;;;;8398240;27;20399;-72
2022/11/01 19:10:36;;;;;;;;;;;15.50;99.90;;;;;;8383674;28;20402;-72
2022/11/01 19:14:39;;;;;;;;;;;15.50;99.90;;;;;;8384294;28;19998;-72
2022/11/01 19:18:40;;;;;;;;;;;15.50;99.90;;;;;;8384242;28;19932;-72
2022/11/01 19:22:43;;;;;;;;;;;15.50;99.90;;;;;;8368404;28;19929;-72
2022/11/01 19:26:45;;;;;;;;;;;15.40;99.90;;;;;;8368327;28;19947;-72
2022/11/01 19:30:50;;;;;;;;;;;15.50;99.90;;;;;;8380241;28;20479;-72
2022/11/01 19:34:53;;;;;;;;;;;15.40;99.90;;;;;;8385602;28;20024;-72
2022/11/01 19:38:54;;;;;;;;;;;15.40;99.90;;;;;;8384643;28;19924;-72
2022/11/01 19:42:57;;;;;;;;;;;15.40;99.90;;;;;;8385028;28;19928;-72
2022/11/01 19:47:14;;;;;;;;;;;15.30;99.90;;;;;;8399469;28;19928;-72
2022/11/01 19:51:22;;;;;;;;;;;15.10;99.90;;;;;;8380512;28;20015;-72
2022/11/01 19:55:33;;;;;;;;;;;15.00;99.90;;;;;;8381328;28;20471;-72
2022/11/01 19:59:35;;;;;;;;;;;15.00;99.90;;;;;;8383395;28;20042;-72
2022/11/01 20:03:39;;;;;;;;;;;15.00;99.90;;;;;;8385813;28;20003;-72
2022/11/01 20:07:41;;;;;;;;;;;14.90;99.90;;;;;;8382162;28;20348;-72
2022/11/01 20:11:42;;;;;;;;;;;14.90;99.90;;;;;;8383144;28;19931;-72
2022/11/01 20:15:44;;;;;;;;;;;14.90;99.90;;;;;;8387996;28;19924;-72
2022/11/01 20:19:46;;;;;;;;;;;15.00;99.90;;;;;;8381561;28;20027;-72
2022/11/01 20:23:48;;;;;;;;;;;15.00;99.90;;;;;;8381264;28;20323;-72
2022/11/01 20:27:49;;;;;;;;;;;15.00;99.90;;;;;;8380536;28;20354;-72
2022/11/01 20:31:51;;;;;;;;;;;15.00;99.90;;;;;;8400039;28;19928;-72
2022/11/01 20:35:52;;;;;;;;;;;14.90;99.90;;;;;;8381791;28;20026;-72
2022/11/01 20:39:54;;;;;;;;;;;14.80;99.90;;;;;;8385585;28;19928;-72
2022/11/01 20:43:56;;;;;;;;;;;14.60;99.90;;;;;;8380565;28;19928;-71
2022/11/01 20:47:57;;;;;;;;;;;14.40;99.90;;;;;;8379213;28;19972;-72
2022/11/01 20:51:59;;;;;;;;;;;14.20;99.90;;;;;;8366858;28;20066;-72
2022/11/01 20:56:21;;;;;;;;;;;14.00;99.90;;;;;;8385409;28;20049;-72
2022/11/01 21:00:23;;;;;;;;;;;13.70;99.90;;;;;;8372797;28;19946;-72
2022/11/01 21:04:24;;;;;;;;;;;13.50;99.90;;;;;;8390112;28;19982;-72
2022/11/01 21:08:32;;;;;;;;;;;13.50;99.90;;;;;;8378371;28;19932;-72
2022/11/01 21:12:40;;;;;;;;;;;13.30;99.90;;;;;;8382630;28;19959;-72
2022/11/01 21:16:42;;;;;;;;;;;13.30;99.90;;;;;;8387984;28;20120;-72
2022/11/01 21:20:44;;;;;;;;;;;13.30;99.90;;;;;;8406780;28;19955;-72
2022/11/01 21:24:47;;;;;;;;;;;13.30;99.90;;;;;;8389695;28;19929;-72
2022/11/01 21:28:50;;;;;;;;;;;13.40;99.90;;;;;;8387760;28;20360;-72
2022/11/01 21:32:51;;;;;;;;;;;13.40;99.90;;;;;;8386471;28;20015;-72
2022/11/01 21:36:54;;;;;;;;;;;13.50;99.90;;;;;;8390236;28;20015;-73
2022/11/01 21:40:58;;;;;;;;;;;13.50;99.90;;;;;;8388914;28;20023;-72
2022/11/01 21:45:07;;;;;;;;;;;13.60;99.90;;;;;;8387025;28;19929;-72
2022/11/01 21:49:20;;;;;;;;;;;13.60;99.90;;;;;;8387308;28;19928;-72
2022/11/01 21:53:21;;;;;;;;;;;13.60;99.90;;;;;;8403675;28;19938;-72
2022/11/01 21:57:23;;;;;;;;;;;13.60;99.90;;;;;;8381373;28;19928;-72
2022/11/01 22:01:24;;;;;;;;;;;13.50;99.90;;;;;;8391833;28;19932;-72
2022/11/01 22:05:26;;;;;;;;;;;13.40;99.90;;;;;;8418318;28;19924;-72
2022/11/01 22:09:28;;;;;;;;;;;13.20;99.90;;;;;;8387525;28;19925;-72
2022/11/01 22:13:30;;;;;;;;;;;13.00;99.90;;;;;;8412328;28;19935;-71
2022/11/01 22:17:31;;;;;;;;;;;12.80;99.90;;;;;;8411599;28;19938;-72
2022/11/01 22:21:33;;;;;;;;;;;12.70;99.90;;;;;;8412564;28;19932;-72
2022/11/01 22:25:35;;;;;;;;;;;12.60;99.90;;;;;;8405632;28;19927;-72
2022/11/01 22:29:37;;;;;;;;;;;12.60;99.90;;;;;;8408280;28;19931;-72
2022/11/01 22:33:38;;;;;;;;;;;12.50;99.90;;;;;;8405001;28;19934;-72
2022/11/01 22:37:40;;;;;;;;;;;12.40;99.90;;;;;;8397517;28;19950;-71
2022/11/01 22:41:42;;;;;;;;;;;12.40;99.90;;;;;;8415241;28;20318;-72
2022/11/01 22:45:43;;;;;;;;;;;12.50;99.90;;;;;;8429049;27;19924;-72
2022/11/01 22:49:49;;;;;;;;;;;12.50;99.90;;;;;;8423825;28;19967;-72
2022/11/01 22:53:51;;;;;;;;;;;12.50;99.90;;;;;;8422255;28;20432;-72
2022/11/01 22:58:02;;;;;;;;;;;12.50;99.90;;;;;;8419412;28;19924;-72
2022/11/01 23:02:15;;;;;;;;;;;12.50;99.90;;;;;;8420540;28;19964;-72
2022/11/01 23:06:20;;;;;;;;;;;12.50;99.90;;;;;;8428116;28;19928;-72
2022/11/01 23:10:22;;;;;;;;;;;12.50;99.90;;;;;;8408122;28;19928;-72
2022/11/01 23:14:36;;;;;;;;;;;12.60;99.90;;;;;;8402175;28;19924;-72
2022/11/01 23:18:39;;;;;;;;;;;12.60;99.90;;;;;;8393522;28;19934;-72
2022/11/01 23:22:40;;;;;;;;;;;12.50;99.90;;;;;;8396244;28;19924;-72
2022/11/01 23:26:42;;;;;;;;;;;12.60;99.90;;;;;;8409234;28;19935;-72
2022/11/01 23:30:45;;;;;;;;;;;12.60;99.90;;;;;;8404626;28;19932;-72
2022/11/01 23:34:47;;;;;;;;;;;12.60;99.90;;;;;;8403650;28;21830;-71
2022/11/01 23:38:51;;;;;;;;;;;12.60;99.90;;;;;;8388040;28;19943;-72
2022/11/01 23:42:53;;;;;;;;;;;12.70;99.90;;;;;;8409279;28;19924;-72
2022/11/01 23:47:15;;;;;;;;;;;12.70;99.90;;;;;;8395569;28;19989;-72
2022/11/01 23:51:20;;;;;;;;;;;12.70;99.90;;;;;;8408737;28;19931;-72
2022/11/01 23:55:25;;;;;;;;;;;12.80;99.90;;;;;;8392380;28;20510;-72
2022/11/01 23:59:27;;;;;;;;;;;12.80;99.90;;;;;;8430095;28;19927;-71
